AIB3 LPMA-LPPT
Flight info
| Callsign | AIB3 |
|---|---|
| Flight time | N/A |
| Altitude | 40000 |
| Route | DEGUN DCT NARTA DCT ESUTI |
| Aircraft | A388/J-SADE2E3FGHIJ3J4J5M1RWXY/LB1D1 |
Departure
| Time | 2026-04-30 21:47 |
|---|---|
| Airport | Cristiano Ronaldo International Airport (LPMA) |
Arrival
| Time | N/A |
|---|---|
| Airport | Lisbon Humberto Delgado Airport (LPPT) |
| Time | Latitude | Longitude | Altitude | Speed | Heading |
|---|---|---|---|---|---|
| 2026-04-30 21:38 | 32.69548 | -16.77403 | 181 ft | 0 kts | 135° |
| 2026-04-30 21:41 | 32.69555 | -16.77412 | 181 ft | 4 kts | 142° |
| 2026-04-30 21:42 | 32.69577 | -16.77429 | 181 ft | 3 kts | 139° |
| 2026-04-30 21:42 | 32.69594 | -16.77445 | 181 ft | 4 kts | 165° |
| 2026-04-30 21:42 | 32.69618 | -16.77443 | 181 ft | 4 kts | 210° |
| 2026-04-30 21:42 | 32.69638 | -16.77425 | 181 ft | 4 kts | 226° |
| 2026-04-30 21:43 | 32.69656 | -16.77403 | 181 ft | 0 kts | 226° |
| 2026-04-30 21:44 | 32.69635 | -16.77428 | 181 ft | 16 kts | 226° |
| 2026-04-30 21:44 | 32.69567 | -16.77513 | 181 ft | 13 kts | 226° |
| 2026-04-30 21:44 | 32.69497 | -16.77599 | 181 ft | 14 kts | 226° |
| 2026-04-30 21:44 | 32.69417 | -16.77698 | 181 ft | 21 kts | 226° |
| 2026-04-30 21:45 | 32.69323 | -16.77816 | 181 ft | 18 kts | 227° |
| 2026-04-30 21:45 | 32.69287 | -16.77962 | 181 ft | 21 kts | 264° |
| 2026-04-30 21:45 | 32.69222 | -16.78108 | 181 ft | 31 kts | 226° |
| 2026-04-30 21:45 | 32.69059 | -16.78311 | 181 ft | 29 kts | 227° |
| 2026-04-30 21:46 | 32.69000 | -16.78426 | 181 ft | 1 kts | 268° |
| 2026-04-30 21:46 | 32.68978 | -16.78448 | 181 ft | 10 kts | 181° |
| 2026-04-30 21:46 | 32.68948 | -16.78407 | 181 ft | 0 kts | 66° |
| 2026-04-30 21:46 | 32.68991 | -16.78366 | 181 ft | 24 kts | 34° |
| 2026-04-30 21:47 | 32.69384 | -16.77924 | 181 ft | 130 kts | 45° |
| 2026-04-30 21:47 | 32.70195 | -16.76988 | 387 ft | 182 kts | 43° |
| 2026-04-30 21:47 | 32.71047 | -16.75769 | 758 ft | 198 kts | 61° |
| 2026-04-30 21:47 | 32.71463 | -16.74133 | 1194 ft | 221 kts | 89° |
| 2026-04-30 21:48 | 32.71203 | -16.72303 | 1898 ft | 242 kts | 114° |
| 2026-04-30 21:48 | 32.70441 | -16.70530 | 2465 ft | 248 kts | 123° |
| 2026-04-30 21:48 | 32.69561 | -16.68662 | 3168 ft | 266 kts | 121° |
| 2026-04-30 21:48 | 32.68736 | -16.66648 | 4125 ft | 275 kts | 117° |
| 2026-04-30 21:49 | 32.67984 | -16.64533 | 5109 ft | 282 kts | 115° |
| 2026-04-30 21:49 | 32.67270 | -16.62344 | 6122 ft | 286 kts | 114° |
| 2026-04-30 21:49 | 32.66564 | -16.60110 | 7090 ft | 291 kts | 114° |
| 2026-04-30 21:49 | 32.65863 | -16.57873 | 8035 ft | 296 kts | 113° |
| 2026-04-30 21:50 | 32.65492 | -16.55425 | 8954 ft | 308 kts | 90° |
| 2026-04-30 21:50 | 32.65986 | -16.52941 | 9925 ft | 316 kts | 64° |
| 2026-04-30 21:50 | 32.67273 | -16.50796 | 10614 ft | 327 kts | 43° |
| 2026-04-30 21:50 | 32.69056 | -16.48977 | 10940 ft | 349 kts | 36° |
| 2026-04-30 21:51 | 32.71018 | -16.47139 | 11281 ft | 368 kts | 37° |
| 2026-04-30 21:51 | 32.72990 | -16.45163 | 12059 ft | 373 kts | 39° |
| 2026-04-30 21:51 | 32.74929 | -16.43085 | 12847 ft | 378 kts | 41° |
| 2026-04-30 21:51 | 32.76829 | -16.40963 | 13627 ft | 383 kts | 42° |
| 2026-04-30 21:52 | 32.78763 | -16.38761 | 14356 ft | 388 kts | 42° |
| 2026-04-30 21:52 | 32.80712 | -16.36526 | 15048 ft | 392 kts | 42° |
| 2026-04-30 21:52 | 32.82685 | -16.34262 | 15731 ft | 397 kts | 41° |
| 2026-04-30 21:52 | 32.84684 | -16.31969 | 16398 ft | 402 kts | 41° |
| 2026-04-30 21:53 | 32.86710 | -16.29646 | 17056 ft | 406 kts | 41° |
| 2026-04-30 21:53 | 32.88761 | -16.27295 | 17706 ft | 412 kts | 41° |
| 2026-04-30 21:53 | 32.90834 | -16.24917 | 18357 ft | 417 kts | 41° |
| 2026-04-30 21:53 | 32.92886 | -16.22561 | 18915 ft | 420 kts | 41° |
| 2026-04-30 21:54 | 32.95041 | -16.20084 | 19514 ft | 424 kts | 40° |
| 2026-04-30 21:54 | 32.97146 | -16.17664 | 20067 ft | 428 kts | 40° |
| 2026-04-30 21:54 | 32.99294 | -16.15194 | 20617 ft | 431 kts | 40° |
| 2026-04-30 21:54 | 33.01462 | -16.12697 | 21162 ft | 435 kts | 40° |
| 2026-04-30 21:55 | 33.03645 | -16.10182 | 21713 ft | 439 kts | 40° |
| 2026-04-30 21:55 | 33.05849 | -16.07642 | 22245 ft | 442 kts | 39° |
| 2026-04-30 21:55 | 33.08067 | -16.05083 | 22789 ft | 446 kts | 39° |
| 2026-04-30 21:55 | 33.10302 | -16.02502 | 23325 ft | 449 kts | 39° |
| 2026-04-30 21:56 | 33.12556 | -15.99897 | 23820 ft | 453 kts | 39° |
| 2026-04-30 21:56 | 33.14823 | -15.97275 | 24330 ft | 454 kts | 39° |
| 2026-04-30 21:56 | 33.17074 | -15.94670 | 24747 ft | 458 kts | 39° |
| 2026-04-30 21:56 | 33.19372 | -15.92009 | 25182 ft | 463 kts | 39° |
| 2026-04-30 21:57 | 33.21692 | -15.89321 | 25640 ft | 467 kts | 39° |
| 2026-04-30 21:57 | 33.24023 | -15.86616 | 26106 ft | 470 kts | 39° |
| 2026-04-30 21:57 | 33.26382 | -15.83878 | 26609 ft | 474 kts | 39° |
| 2026-04-30 21:57 | 33.28757 | -15.81119 | 27116 ft | 478 kts | 39° |
| 2026-04-30 21:58 | 33.31147 | -15.78340 | 27649 ft | 482 kts | 39° |
| 2026-04-30 21:58 | 33.33528 | -15.75570 | 28165 ft | 486 kts | 39° |
| 2026-04-30 21:58 | 33.35956 | -15.72742 | 28715 ft | 490 kts | 39° |
| 2026-04-30 21:58 | 33.38405 | -15.69887 | 29221 ft | 494 kts | 39° |
| 2026-04-30 21:59 | 33.40883 | -15.66998 | 29753 ft | 499 kts | 39° |
| 2026-04-30 21:59 | 33.43378 | -15.64098 | 30281 ft | 503 kts | 38° |
| 2026-04-30 21:59 | 33.45921 | -15.61224 | 30802 ft | 505 kts | 37° |
| 2026-04-30 22:00 | 33.51100 | -15.55438 | 31765 ft | 512 kts | 37° |
| 2026-04-30 22:00 | 33.56297 | -15.49607 | 32729 ft | 519 kts | 37° |
| 2026-04-30 22:00 | 33.58937 | -15.46633 | 33192 ft | 522 kts | 37° |
| 2026-04-30 22:01 | 33.61591 | -15.43638 | 33667 ft | 526 kts | 38° |
| 2026-04-30 22:01 | 33.64265 | -15.40616 | 34138 ft | 529 kts | 38° |
| 2026-04-30 22:01 | 33.66945 | -15.37584 | 34536 ft | 533 kts | 38° |
| 2026-04-30 22:01 | 33.69654 | -15.34517 | 34957 ft | 536 kts | 38° |
| 2026-04-30 22:02 | 33.72327 | -15.31486 | 35481 ft | 536 kts | 38° |
| 2026-04-30 22:02 | 33.75036 | -15.28411 | 36046 ft | 535 kts | 38° |
| 2026-04-30 22:02 | 33.77737 | -15.25343 | 36607 ft | 534 kts | 38° |
| 2026-04-30 22:02 | 33.80438 | -15.22272 | 37113 ft | 536 kts | 38° |
| 2026-04-30 22:03 | 33.83151 | -15.19186 | 37671 ft | 535 kts | 38° |
| 2026-04-30 22:03 | 33.85843 | -15.16122 | 38217 ft | 534 kts | 38° |
| 2026-04-30 22:03 | 33.88545 | -15.13042 | 38750 ft | 534 kts | 38° |
| 2026-04-30 22:03 | 33.91238 | -15.09972 | 39211 ft | 533 kts | 38° |
| 2026-04-30 22:04 | 33.93891 | -15.06941 | 39702 ft | 531 kts | 38° |
| 2026-04-30 22:04 | 33.96562 | -15.03888 | 40183 ft | 529 kts | 38° |
| 2026-04-30 22:04 | 34.01895 | -14.97788 | 41011 ft | 528 kts | 39° |
| 2026-04-30 22:05 | 34.04561 | -14.94735 | 41143 ft | 530 kts | 39° |
| 2026-04-30 22:05 | 34.09887 | -14.88622 | 41155 ft | 529 kts | 38° |
| 2026-04-30 22:06 | 34.15198 | -14.82519 | 41145 ft | 531 kts | 38° |
| 2026-04-30 22:06 | 34.23215 | -14.73282 | 41150 ft | 531 kts | 39° |
| 2026-04-30 22:07 | 34.28558 | -14.67112 | 41150 ft | 531 kts | 39° |
| 2026-04-30 22:07 | 34.33895 | -14.60937 | 41147 ft | 531 kts | 39° |
| 2026-04-30 22:08 | 34.39195 | -14.54794 | 41138 ft | 532 kts | 38° |
| 2026-04-30 22:08 | 34.44539 | -14.48589 | 41147 ft | 532 kts | 38° |
| 2026-04-30 22:09 | 34.49881 | -14.42375 | 41148 ft | 532 kts | 38° |
| 2026-04-30 22:09 | 34.55220 | -14.36152 | 41149 ft | 532 kts | 38° |
| 2026-04-30 22:10 | 34.60519 | -14.29965 | 41150 ft | 532 kts | 38° |
| 2026-04-30 22:10 | 34.65857 | -14.23720 | 41151 ft | 533 kts | 39° |
| 2026-04-30 22:11 | 34.73852 | -14.14344 | 41161 ft | 533 kts | 39° |
| 2026-04-30 22:12 | 34.79179 | -14.08083 | 41157 ft | 532 kts | 39° |
| 2026-04-30 22:12 | 34.84500 | -14.01817 | 41157 ft | 532 kts | 39° |
| 2026-04-30 22:13 | 34.89771 | -13.95597 | 41157 ft | 532 kts | 39° |
| 2026-04-30 22:13 | 34.95079 | -13.89322 | 41164 ft | 531 kts | 39° |
| 2026-04-30 22:14 | 35.00384 | -13.83040 | 41157 ft | 532 kts | 39° |
| 2026-04-30 22:14 | 35.05657 | -13.76782 | 41156 ft | 532 kts | 39° |
| 2026-04-30 22:15 | 35.10956 | -13.70482 | 41153 ft | 532 kts | 39° |
| 2026-04-30 22:15 | 35.16252 | -13.64174 | 41156 ft | 532 kts | 39° |
| 2026-04-30 22:16 | 35.21537 | -13.57866 | 41156 ft | 532 kts | 39° |
| 2026-04-30 22:17 | 35.32085 | -13.45242 | 41172 ft | 532 kts | 39° |
| 2026-04-30 22:17 | 35.39998 | -13.35738 | 41167 ft | 531 kts | 39° |
| 2026-04-30 22:18 | 35.47901 | -13.26219 | 41162 ft | 531 kts | 39° |
| 2026-04-30 22:19 | 35.55771 | -13.16714 | 41166 ft | 531 kts | 39° |
| 2026-04-30 22:20 | 35.63654 | -13.07163 | 41165 ft | 531 kts | 39° |
| 2026-04-30 22:20 | 35.71501 | -12.97629 | 41162 ft | 530 kts | 39° |
| 2026-04-30 22:21 | 35.76745 | -12.91241 | 41163 ft | 530 kts | 39° |
| 2026-04-30 22:21 | 35.81982 | -12.84850 | 41180 ft | 531 kts | 39° |
| 2026-04-30 22:22 | 35.87236 | -12.78427 | 41162 ft | 531 kts | 39° |
| 2026-04-30 22:22 | 35.92444 | -12.72045 | 41174 ft | 531 kts | 40° |
| 2026-04-30 22:23 | 35.97675 | -12.65625 | 41173 ft | 530 kts | 40° |
| 2026-04-30 22:23 | 36.02901 | -12.59203 | 41167 ft | 530 kts | 40° |
| 2026-04-30 22:24 | 36.08154 | -12.52817 | 41164 ft | 529 kts | 38° |
| 2026-04-30 22:24 | 36.13542 | -12.46717 | 41165 ft | 528 kts | 37° |
| 2026-04-30 22:25 | 36.18963 | -12.40575 | 41151 ft | 528 kts | 38° |
| 2026-04-30 22:25 | 36.24350 | -12.34408 | 41177 ft | 527 kts | 38° |
| 2026-04-30 22:26 | 36.32417 | -12.25131 | 41182 ft | 527 kts | 38° |
| 2026-04-30 22:27 | 36.37738 | -12.18997 | 41193 ft | 527 kts | 38° |
| 2026-04-30 22:27 | 36.45787 | -12.09695 | 41181 ft | 526 kts | 39° |
| 2026-04-30 22:28 | 36.53793 | -12.00415 | 41187 ft | 524 kts | 39° |
| 2026-04-30 22:29 | 36.61764 | -11.91149 | 42090 ft | 524 kts | 39° |
| 2026-04-30 22:29 | 36.64430 | -11.88045 | 42520 ft | 524 kts | 40° |
| 2026-04-30 22:30 | 36.75022 | -11.75673 | 43167 ft | 517 kts | 40° |
| 2026-04-30 22:31 | 36.82890 | -11.66455 | 43168 ft | 520 kts | 40° |
| 2026-04-30 22:32 | 36.96043 | -11.50982 | 43152 ft | 519 kts | 40° |
| 2026-04-30 22:33 | 37.09096 | -11.35548 | 43144 ft | 516 kts | 40° |
| 2026-04-30 22:35 | 37.22090 | -11.20110 | 43154 ft | 514 kts | 41° |
| 2026-04-30 22:36 | 37.35001 | -11.04691 | 43151 ft | 514 kts | 41° |
| 2026-04-30 22:37 | 37.45357 | -10.92270 | 43184 ft | 514 kts | 41° |
| 2026-04-30 22:38 | 37.55660 | -10.79861 | 43182 ft | 514 kts | 41° |
| 2026-04-30 22:39 | 37.63406 | -10.70499 | 43172 ft | 514 kts | 42° |
| 2026-04-30 22:40 | 37.78812 | -10.51795 | 43165 ft | 513 kts | 42° |
| 2026-04-30 22:41 | 37.91193 | -10.35964 | 43170 ft | 503 kts | 56° |
| 2026-04-30 22:42 | 37.94101 | -10.19045 | 43167 ft | 502 kts | 102° |
| 2026-04-30 22:43 | 37.91685 | -10.10866 | 43172 ft | 495 kts | 125° |
| 2026-04-30 22:43 | 37.87089 | -10.04578 | 43173 ft | 484 kts | 148° |
| 2026-04-30 22:44 | 37.81126 | -10.01131 | 43169 ft | 471 kts | 172° |
| 2026-04-30 22:45 | 37.68700 | -10.03524 | 43171 ft | 454 kts | 210° |
| 2026-04-30 22:45 | 37.63607 | -10.08096 | 43168 ft | 448 kts | 227° |
| 2026-04-30 22:46 | 37.60042 | -10.14393 | 43168 ft | 445 kts | 245° |
| 2026-04-30 22:47 | 37.58852 | -10.29631 | 43177 ft | 448 kts | 283° |
| 2026-04-30 22:47 | 37.61442 | -10.36800 | 43172 ft | 455 kts | 302° |
| 2026-04-30 22:48 | 37.65898 | -10.42449 | 43170 ft | 464 kts | 322° |
| 2026-04-30 22:49 | 37.75109 | -10.46444 | 43170 ft | 482 kts | 354° |
| 2026-04-30 22:49 | 37.84966 | -10.43577 | 43166 ft | 495 kts | 20° |
| 2026-04-30 22:50 | 37.96112 | -10.33651 | 43170 ft | 506 kts | 47° |
| 2026-04-30 22:51 | 38.01556 | -10.28002 | 43137 ft | 505 kts | 30° |
| 2026-04-30 22:51 | 38.07431 | -10.23303 | 42312 ft | 497 kts | 30° |
| 2026-04-30 22:52 | 38.09365 | -10.21735 | 41885 ft | 497 kts | 30° |
| 2026-04-30 22:52 | 38.16087 | -10.16155 | 40403 ft | 496 kts | 31° |
| 2026-04-30 22:53 | 38.20895 | -10.12109 | 39391 ft | 494 kts | 31° |
| 2026-04-30 22:53 | 38.26575 | -10.07319 | 37939 ft | 493 kts | 31° |
| 2026-04-30 22:53 | 38.29442 | -10.04897 | 36912 ft | 497 kts | 31° |
| 2026-04-30 22:54 | 38.35302 | -9.99946 | 34260 ft | 516 kts | 31° |
| 2026-04-30 22:55 | 38.45464 | -9.91327 | 29172 ft | 535 kts | 31° |
| 2026-04-30 22:55 | 38.50567 | -9.86988 | 27274 ft | 524 kts | 31° |
| 2026-04-30 22:56 | 38.56423 | -9.81991 | 25934 ft | 476 kts | 31° |
| 2026-04-30 22:56 | 38.63963 | -9.75626 | 24920 ft | 391 kts | 24° |
| 2026-04-30 22:57 | 38.68644 | -9.72686 | 23754 ft | 372 kts | 23° |
| 2026-04-30 22:57 | 38.73198 | -9.69828 | 22765 ft | 350 kts | 23° |
| 2026-04-30 22:58 | 38.77524 | -9.67108 | 21362 ft | 345 kts | 26° |
| 2026-04-30 22:59 | 38.83001 | -9.61287 | 19635 ft | 331 kts | 40° |
| 2026-04-30 22:59 | 38.87988 | -9.55688 | 18212 ft | 310 kts | 40° |